sim
Sign-in with your pilot id or email,
or register
Callsign
Passwort

Schedule Details

Flight Number: DLH2009
Departure: Dusseldorf International Airport (EDDL) at 11:25
Arrival: Munich Airport (EDDM) at 12:35
Route: Lufthansa Passenger Schedule. Enter filed route here before submitting Pirep.

Weather Information
Getting current METAR information for EDDL 281250Z 23005KT 9999 -RA FEW015 BKN030 12/09 Q1010 TEMPO 4000 RADZ
Getting current METAR information for EDDM 281250Z 29003KT 260V320 9999 -RA FEW025 BKN040 10/07 Q1012 NOSIG

Schedule Frequency

Route Map